Time;durP1;ratioP1;P1;durP2;ratioP2;P2;SDS_P1;SDS_P2;PMS_P1;PMS_P2;Temp;Humidity;BMP_temperature;BMP_pressure;BME280_temperature;BME280_humidity;BME280_pressure;Samples;Min_cycle;Max_cycle;Signal;HPM_P1;HPM_P2
2022/12/15 00:40:03;;;;;;;15.70;10.02;;;-3.00;99.90;;;;;;476879;249;27106;-67
2022/12/15 00:42:03;;;;;;;15.30;10.43;;;-3.00;99.90;;;;;;476847;249;27661;-67
2022/12/15 00:44:04;;;;;;;15.98;10.45;;;-3.00;99.90;;;;;;476903;248;27546;-70
2022/12/15 00:48:25;;;;;;;13.23;9.63;;;-3.00;99.90;;;;;;476914;249;27191;-68
2022/12/15 01:20:43;;;;;;;21.10;12.00;;;-2.80;99.90;;;;;;476923;249;27702;-69
2022/12/15 01:22:44;;;;;;;17.60;11.85;;;-2.80;99.90;;;;;;476855;248;27846;-67
2022/12/15 01:24:45;;;;;;;21.73;12.48;;;-2.80;99.90;;;;;;476898;248;27168;-68
2022/12/15 01:26:47;;;;;;;17.70;11.32;;;-2.80;99.90;;;;;;476884;248;27310;-68
2022/12/15 01:28:48;;;;;;;18.55;11.75;;;-2.80;99.90;;;;;;476903;249;27060;-68
2022/12/15 01:30:49;;;;;;;19.45;11.63;;;-2.70;99.90;;;;;;476894;248;27091;-69
2022/12/15 01:32:50;;;;;;;16.80;11.52;;;-2.70;99.90;;;;;;476988;247;27068;-67
2022/12/15 01:34:52;;;;;;;18.40;12.30;;;-2.70;99.90;;;;;;476875;248;27309;-68
2022/12/15 01:36:53;;;;;;;23.15;12.18;;;-2.60;99.90;;;;;;476873;248;27864;-68
2022/12/15 01:38:54;;;;;;;22.30;12.57;;;-2.60;99.90;;;;;;477031;247;27813;-68
2022/12/15 01:40:55;;;;;;;20.23;12.80;;;-2.70;99.90;;;;;;476937;248;27172;-69
2022/12/15 01:42:57;;;;;;;17.92;12.15;;;-2.70;99.90;;;;;;476909;248;27313;-69
2022/12/15 01:44:58;;;;;;;14.63;10.65;;;-2.70;99.90;;;;;;476902;248;27444;-68
2022/12/15 01:46:59;;;;;;;17.90;11.40;;;-2.80;99.90;;;;;;476880;248;27382;-67
2022/12/15 01:49:00;;;;;;;19.33;11.90;;;-2.70;99.90;;;;;;476904;248;27241;-67
2022/12/15 01:51:02;;;;;;;17.80;11.35;;;-2.70;99.90;;;;;;476900;249;27781;-69
2022/12/15 01:53:03;;;;;;;23.20;13.00;;;-2.70;99.90;;;;;;477237;247;27155;-68
2022/12/15 01:55:04;;;;;;;21.73;13.38;;;-2.70;99.90;;;;;;479093;247;27294;-68
2022/12/15 01:57:05;;;;;;;20.40;12.93;;;-2.70;99.90;;;;;;476930;247;27309;-67
2022/12/15 01:59:07;;;;;;;18.65;12.02;;;-2.70;99.90;;;;;;476892;249;27123;-67
2022/12/15 02:01:08;;;;;;;20.40;11.80;;;-2.80;99.90;;;;;;476896;248;27334;-69
2022/12/15 02:03:09;;;;;;;20.15;13.05;;;-2.80;99.90;;;;;;476857;248;27584;-68
2022/12/15 02:05:10;;;;;;;23.00;13.73;;;-2.80;99.90;;;;;;476863;249;27601;-69
2022/12/15 02:07:12;;;;;;;26.37;14.63;;;-2.90;99.90;;;;;;476899;249;27217;-68
2022/12/15 02:09:13;;;;;;;21.70;13.25;;;-2.90;99.90;;;;;;476905;248;27414;-67
2022/12/15 02:11:15;;;;;;;21.67;13.10;;;;;;;;;;476915;248;27539;-67
2022/12/15 02:13:17;;;;;;;23.58;12.75;;;-2.80;99.90;;;;;;476891;249;26738;-68
2022/12/15 02:15:18;;;;;;;22.50;13.80;;;-2.80;99.90;;;;;;476897;248;27147;-68
2022/12/15 02:17:19;;;;;;;22.65;12.65;;;-2.80;99.90;;;;;;476903;248;26972;-67
2022/12/15 02:19:20;;;;;;;22.40;13.15;;;-2.80;99.90;;;;;;476896;248;27236;-68
2022/12/15 02:21:23;;;;;;;17.35;11.23;;;;;;;;;;476902;249;27159;-67
2022/12/15 02:23:24;;;;;;;20.58;12.68;;;-2.80;99.90;;;;;;476847;249;26705;-68
2022/12/15 02:25:26;;;;;;;21.75;12.88;;;-2.80;99.90;;;;;;476909;248;27273;-68
2022/12/15 02:27:27;;;;;;;18.15;11.32;;;-2.80;99.90;;;;;;476912;249;27173;-68
2022/12/15 02:29:28;;;;;;;25.17;11.80;;;-2.90;99.90;;;;;;476897;248;27687;-68
2022/12/15 02:32:03;;;;;;;21.73;13.15;;;-2.90;99.90;;;;;;476911;248;27777;-67
2022/12/15 02:33:36;;;;;;;20.52;12.90;;;-2.90;99.90;;;;;;474862;249;27163;-67
2022/12/15 02:35:37;;;;;;;15.35;9.77;;;-3.00;99.90;;;;;;476917;248;27719;-68
2022/12/15 02:37:39;;;;;;;16.35;11.30;;;-3.00;99.90;;;;;;476873;249;28868;-68
2022/12/15 02:39:40;;;;;;;16.40;10.88;;;-3.00;99.90;;;;;;476918;249;27134;-68
2022/12/15 02:41:41;;;;;;;19.05;12.23;;;-3.00;99.90;;;;;;477427;247;27214;-68
2022/12/15 02:43:43;;;;;;;17.12;10.98;;;-3.00;99.90;;;;;;476859;249;27182;-69
2022/12/15 02:45:44;;;;;;;19.10;10.50;;;-3.00;99.90;;;;;;476927;249;27280;-67
2022/12/15 02:47:45;;;;;;;16.27;10.40;;;-3.00;99.90;;;;;;476901;249;27318;-68
2022/12/15 02:49:46;;;;;;;19.30;11.70;;;-3.00;99.90;;;;;;476942;248;27759;-67
2022/12/15 02:51:48;;;;;;;13.02;9.65;;;-3.00;99.90;;;;;;476915;248;27488;-68
2022/12/15 02:53:49;;;;;;;16.10;10.95;;;-2.90;99.90;;;;;;479307;247;27316;-67
2022/12/15 02:55:50;;;;;;;17.33;11.70;;;-2.90;99.90;;;;;;477711;248;27336;-67
2022/12/15 02:57:51;;;;;;;18.48;10.75;;;-2.90;99.90;;;;;;476938;248;27395;-68
2022/12/15 02:59:54;;;;;;;15.95;10.90;;;-2.90;99.90;;;;;;476910;248;27167;-68
2022/12/15 03:01:54;;;;;;;19.27;11.48;;;-2.80;99.90;;;;;;476838;249;27734;-68
2022/12/15 03:03:55;;;;;;;17.75;10.68;;;-2.80;99.90;;;;;;477470;247;27875;-70
2022/12/15 03:05:56;;;;;;;16.85;11.00;;;-2.70;99.90;;;;;;476928;248;27254;-68
2022/12/15 03:07:58;;;;;;;14.90;9.95;;;-2.70;99.90;;;;;;476943;249;27322;-68
2022/12/15 03:09:59;;;;;;;16.50;11.12;;;-2.70;99.90;;;;;;477460;247;27284;-67
2022/12/15 03:12:00;;;;;;;16.10;10.82;;;-2.70;99.90;;;;;;476893;249;27323;-68
2022/12/15 03:14:01;;;;;;;15.73;9.73;;;-2.70;99.90;;;;;;476908;248;27581;-69
2022/12/15 03:16:03;;;;;;;16.27;10.80;;;-2.80;99.90;;;;;;476911;249;27153;-68
2022/12/15 03:18:04;;;;;;;15.40;10.27;;;-2.80;99.90;;;;;;476908;248;27289;-68
2022/12/15 03:20:05;;;;;;;16.70;11.10;;;-2.80;99.90;;;;;;476903;249;27496;-68
2022/12/15 03:22:06;;;;;;;15.88;10.68;;;-2.70;99.90;;;;;;476879;249;27452;-67
2022/12/15 03:24:08;;;;;;;14.73;9.95;;;-2.80;99.90;;;;;;477020;248;27910;-70
2022/12/15 03:26:09;;;;;;;16.08;10.93;;;-2.90;99.90;;;;;;476873;248;27802;-67
2022/12/15 03:28:10;;;;;;;15.70;10.10;;;-3.00;99.90;;;;;;476867;249;27312;-67
2022/12/15 03:30:12;;;;;;;15.43;10.77;;;-3.10;99.90;;;;;;476829;248;27276;-67
2022/12/15 03:32:13;;;;;;;17.45;10.20;;;-3.10;99.90;;;;;;476845;249;27254;-68
2022/12/15 03:34:14;;;;;;;16.55;10.88;;;-3.10;99.90;;;;;;476892;248;27073;-69
2022/12/15 03:36:15;;;;;;;13.50;8.75;;;-3.10;99.90;;;;;;476892;248;27264;-68
2022/12/15 03:38:17;;;;;;;17.20;11.10;;;-3.10;99.90;;;;;;476867;248;27686;-68
2022/12/15 03:40:18;;;;;;;16.75;9.85;;;-3.20;99.90;;;;;;476844;248;27776;-67
2022/12/15 03:42:47;;;;;;;16.50;9.27;;;;;;;;;;476915;249;27146;-67
2022/12/15 03:44:21;;;;;;;13.70;9.75;;;-3.30;99.90;;;;;;476624;249;26673;-67
2022/12/15 03:46:23;;;;;;;15.35;10.65;;;-3.30;99.90;;;;;;476907;248;27656;-67
2022/12/15 03:48:24;;;;;;;15.27;9.68;;;-3.30;99.90;;;;;;476885;249;27610;-67
2022/12/15 03:50:27;;;;;;;16.98;10.35;;;;;;;;;;476934;248;27033;-67
2022/12/15 03:52:28;;;;;;;17.27;11.30;;;-3.40;99.90;;;;;;476899;249;26756;-67
2022/12/15 03:54:29;;;;;;;18.25;11.05;;;-3.30;99.90;;;;;;476973;248;28070;-67
2022/12/15 03:56:31;;;;;;;19.42;12.13;;;-3.30;99.90;;;;;;476934;248;26613;-67
2022/12/15 03:58:31;;;;;;;18.23;10.65;;;-3.40;99.90;;;;;;476911;249;27061;-68
2022/12/15 04:00:33;;;;;;;18.73;12.02;;;-3.40;99.90;;;;;;476900;248;27084;-68
2022/12/15 04:02:34;;;;;;;17.70;11.38;;;-3.40;99.90;;;;;;476906;248;27613;-68
2022/12/15 04:04:37;;;;;;;17.80;11.18;;;;;;;;;;477125;247;27578;-69
2022/12/15 04:06:39;;;;;;;17.70;10.45;;;;;;;;;;476922;249;26651;-68
2022/12/15 04:08:42;;;;;;;17.87;11.38;;;;;;;;;;476884;249;26689;-67
2022/12/15 04:10:43;;;;;;;14.48;10.15;;;-3.50;99.90;;;;;;476930;249;27233;-69
2022/12/15 04:12:45;;;;;;;13.00;9.65;;;;;;;;;;476906;249;27080;-66
2022/12/15 04:14:48;;;;;;;19.65;11.32;;;;;;;;;;476892;249;26618;-67
2022/12/15 04:16:50;;;;;;;17.75;11.93;;;;;;;;;;479843;247;27293;-68
2022/12/15 04:20:07;;;;;;;18.65;11.38;;;;;;;;;;478228;247;27842;-67
2022/12/15 04:20:55;;;;;;;14.60;10.18;;;;;;;;;;475558;249;26922;-69
2022/12/15 04:22:57;;;;;;;14.90;9.63;;;;;;;;;;476894;249;26706;-67
2022/12/15 05:32:40;;;;;;;16.77;11.95;;;-3.20;99.90;;;;;;476910;248;27776;-67
2022/12/15 05:34:43;;;;;;;19.98;13.15;;;;;;;;;;476890;248;27159;-67
2022/12/15 05:36:45;;;;;;;21.48;13.95;;;;;;;;;;476900;249;27176;-67
2022/12/15 05:38:46;;;;;;;26.00;14.87;;;-3.40;99.90;;;;;;476924;249;26671;-67
2022/12/15 05:40:48;;;;;;;27.10;15.70;;;-3.40;99.90;;;;;;476905;248;27546;-68
2022/12/15 05:42:50;;;;;;;25.75;15.82;;;;;;;;;;476898;248;27906;-67
2022/12/15 05:44:52;;;;;;;23.52;13.90;;;;;;;;;;476881;248;26846;-67
2022/12/15 05:46:54;;;;;;;23.73;14.43;;;-3.30;99.90;;;;;;476898;249;27439;-67
2022/12/15 05:48:56;;;;;;;22.35;14.13;;;;;;;;;;476912;248;27574;-67
2022/12/15 05:50:57;;;;;;;22.05;14.63;;;-3.40;99.90;;;;;;476918;248;27154;-67
2022/12/15 05:53:00;;;;;;;23.20;14.30;;;;;;;;;;476915;248;27521;-67
2022/12/15 05:55:02;;;;;;;20.12;13.35;;;;;;;;;;476896;249;26877;-67
2022/12/15 05:57:05;;;;;;;24.33;15.02;;;;;;;;;;476832;249;26718;-67
2022/12/15 05:59:06;;;;;;;20.65;12.40;;;-3.60;99.90;;;;;;476858;249;27234;-67
2022/12/15 06:01:08;;;;;;;19.33;13.15;;;;;;;;;;476872;249;28256;-67
2022/12/15 06:03:11;;;;;;;20.80;13.82;;;;;;;;;;476934;249;26662;-67
2022/12/15 06:05:13;;;;;;;24.00;14.98;;;;;;;;;;476892;249;26716;-67
2022/12/15 06:07:16;;;;;;;27.87;18.48;;;;;;;;;;476887;249;27356;-68
2022/12/15 06:09:17;;;;;;;26.73;17.37;;;-3.60;99.90;;;;;;476916;249;27062;-67
2022/12/15 06:11:19;;;;;;;29.77;18.12;;;;;;;;;;476905;248;27430;-67
2022/12/15 06:13:22;;;;;;;29.05;17.90;;;;;;;;;;476902;249;26611;-67
2022/12/15 06:15:23;;;;;;;30.42;19.42;;;-3.50;99.90;;;;;;476920;249;27147;-67
2022/12/15 06:17:24;;;;;;;30.95;19.10;;;-3.50;99.90;;;;;;476919;248;27555;-67
2022/12/15 06:19:27;;;;;;;30.20;19.15;;;;;;;;;;476900;248;27575;-67
2022/12/15 06:21:28;;;;;;;32.03;19.67;;;-3.60;99.90;;;;;;478693;247;27342;-69
2022/12/15 06:23:30;;;;;;;32.20;18.87;;;-3.60;99.90;;;;;;476858;248;27546;-67
2022/12/15 06:25:31;;;;;;;29.63;18.55;;;-3.60;99.90;;;;;;476922;248;27644;-67
2022/12/15 06:27:32;;;;;;;29.05;17.25;;;-3.60;99.90;;;;;;478187;247;27526;-67
2022/12/15 06:29:34;;;;;;;31.37;17.40;;;;;;;;;;476904;248;27597;-69
2022/12/15 06:31:36;;;;;;;28.55;17.08;;;-3.70;99.90;;;;;;476921;248;26585;-67
2022/12/15 06:33:38;;;;;;;28.38;17.50;;;;;;;;;;476921;248;27458;-67
2022/12/15 06:35:41;;;;;;;28.77;17.30;;;;;;;;;;476875;249;26841;-68
2022/12/15 06:37:43;;;;;;;33.80;18.33;;;;;;;;;;476929;248;26663;-68
2022/12/15 06:39:44;;;;;;;31.62;18.92;;;-3.90;99.90;;;;;;476908;249;27357;-67
2022/12/15 06:41:45;;;;;;;32.78;18.12;;;-3.90;99.90;;;;;;476898;248;27966;-66
2022/12/15 06:43:48;;;;;;;33.53;19.55;;;;;;;;;;476908;248;27566;-67
2022/12/15 06:45:50;;;;;;;34.22;19.33;;;;;;;;;;476902;249;27655;-67
2022/12/15 06:47:52;;;;;;;34.75;19.60;;;-4.00;99.90;;;;;;476910;249;26880;-67
2022/12/15 06:49:54;;;;;;;37.17;21.48;;;-4.00;99.90;;;;;;476892;249;27543;-68
2022/12/15 06:51:54;;;;;;;35.35;20.67;;;-4.00;99.90;;;;;;476877;248;27392;-67
2022/12/15 06:53:56;;;;;;;31.95;19.90;;;-4.00;99.90;;;;;;476905;248;28165;-67
2022/12/15 06:55:57;;;;;;;32.33;19.23;;;-4.00;99.90;;;;;;476955;248;27979;-68
2022/12/15 06:57:59;;;;;;;32.28;19.65;;;;;;;;;;476935;248;27436;-67
2022/12/15 07:00:01;;;;;;;33.55;20.67;;;-4.00;99.90;;;;;;476893;249;27912;-67
2022/12/15 07:02:02;;;;;;;38.50;20.62;;;-4.00;99.90;;;;;;476901;248;28063;-67
2022/12/15 07:04:04;;;;;;;31.08;19.58;;;-4.00;99.90;;;;;;476931;248;27431;-69
2022/12/15 07:06:04;;;;;;;32.00;19.12;;;-4.00;99.90;;;;;;476901;249;27603;-67
2022/12/15 07:08:06;;;;;;;34.75;20.23;;;-4.10;99.90;;;;;;476790;249;27553;-68
2022/12/15 07:10:09;;;;;;;37.03;21.25;;;;;;;;;;476887;248;27521;-67
2022/12/15 07:12:09;;;;;;;32.70;19.83;;;-4.10;99.90;;;;;;476872;249;26853;-67
2022/12/15 07:14:11;;;;;;;33.92;19.62;;;-4.10;99.90;;;;;;476889;248;27951;-69
2022/12/15 07:16:12;;;;;;;33.45;21.45;;;-4.00;99.90;;;;;;477532;248;27574;-67
2022/12/15 07:18:14;;;;;;;31.75;19.87;;;-4.10;99.90;;;;;;477590;247;28002;-68
2022/12/15 07:20:15;;;;;;;32.15;19.27;;;-4.20;99.90;;;;;;476918;249;27946;-67
2022/12/15 07:22:16;;;;;;;31.15;19.42;;;-4.20;99.90;;;;;;476909;248;27516;-67
2022/12/15 07:24:19;;;;;;;31.12;19.40;;;-4.20;99.90;;;;;;476911;248;27438;-69
2022/12/15 07:26:20;;;;;;;33.28;20.77;;;-4.30;99.90;;;;;;476911;249;27637;-68
2022/12/15 07:28:22;;;;;;;35.15;21.17;;;;;;;;;;476906;248;28018;-67
2022/12/15 07:30:24;;;;;;;41.45;20.70;;;-4.30;99.90;;;;;;476908;249;26861;-69
2022/12/15 07:32:25;;;;;;;33.47;18.48;;;-4.40;99.90;;;;;;476918;248;27515;-67
2022/12/15 07:34:26;;;;;;;32.90;19.50;;;-4.40;99.90;;;;;;476895;248;27530;-68
2022/12/15 07:36:29;;;;;;;29.20;17.27;;;;;;;;;;476903;248;28017;-67
2022/12/15 07:38:30;;;;;;;30.92;19.87;;;-4.30;99.90;;;;;;476922;249;27678;-68
2022/12/15 07:40:31;;;;;;;30.73;18.92;;;-4.30;99.90;;;;;;476895;249;29021;-67
2022/12/15 07:42:32;;;;;;;25.65;16.55;;;-4.40;99.90;;;;;;476913;248;27527;-68
2022/12/15 07:44:34;;;;;;;27.23;16.90;;;-4.30;99.90;;;;;;476952;248;27575;-67
2022/12/15 07:46:35;;;;;;;26.85;16.92;;;-4.30;99.90;;;;;;476892;248;27531;-67
2022/12/15 07:48:36;;;;;;;26.58;17.98;;;-4.30;99.90;;;;;;476944;248;28036;-69
2022/12/15 07:50:38;;;;;;;26.37;16.90;;;-4.30;99.90;;;;;;477616;247;27492;-67
2022/12/15 07:52:39;;;;;;;25.17;15.88;;;-4.30;99.90;;;;;;476910;248;27613;-67
2022/12/15 07:54:40;;;;;;;28.92;15.77;;;-4.30;99.90;;;;;;476882;248;27488;-67
2022/12/15 07:56:41;;;;;;;24.20;14.30;;;-4.30;99.90;;;;;;476893;248;27542;-67
2022/12/15 07:58:43;;;;;;;22.58;15.43;;;-4.30;99.90;;;;;;476896;248;27520;-69
2022/12/15 08:00:45;;;;;;;25.35;16.75;;;;;;;;;;476908;248;27930;-68
2022/12/15 08:02:46;;;;;;;20.98;15.02;;;-4.20;99.90;;;;;;477453;247;26924;-67
2022/12/15 08:04:49;;;;;;;22.50;14.65;;;;;;;;;;476910;249;27505;-67
2022/12/15 08:06:50;;;;;;;24.37;15.55;;;-4.40;99.90;;;;;;476911;249;26810;-67
2022/12/15 08:08:52;;;;;;;19.37;14.32;;;;;;;;;;476872;248;27518;-67
2022/12/15 08:10:54;;;;;;;22.80;14.02;;;-4.40;99.90;;;;;;478789;247;26886;-67
2022/12/15 08:12:55;;;;;;;20.30;13.98;;;-4.30;99.90;;;;;;476948;249;27711;-68
2022/12/15 08:14:56;;;;;;;21.70;13.57;;;-4.30;99.90;;;;;;476928;248;27479;-67
2022/12/15 08:16:57;;;;;;;21.33;15.02;;;-4.20;99.90;;;;;;476927;249;27535;-68
2022/12/15 08:18:59;;;;;;;19.40;13.62;;;-4.20;99.90;;;;;;476896;248;27518;-67
2022/12/15 08:21:00;;;;;;;19.33;13.32;;;-4.10;99.90;;;;;;476942;248;27938;-67
2022/12/15 08:23:01;;;;;;;20.73;13.13;;;-4.00;99.90;;;;;;476920;248;27924;-67
2022/12/15 08:25:02;;;;;;;19.98;13.77;;;-4.00;99.90;;;;;;476877;248;27491;-67
2022/12/15 08:27:04;;;;;;;23.20;13.27;;;-4.00;99.90;;;;;;477717;247;27650;-67
2022/12/15 08:29:05;;;;;;;18.48;11.88;;;-3.90;99.90;;;;;;476925;248;27615;-67
2022/12/15 08:31:06;;;;;;;18.40;12.23;;;-3.90;99.90;;;;;;476932;248;27572;-68
2022/12/15 08:33:09;;;;;;;19.10;12.20;;;;;;;;;;476929;248;27976;-68
2022/12/15 08:35:11;;;;;;;15.02;10.88;;;-3.90;99.90;;;;;;476876;249;27421;-67
2022/12/15 08:37:11;;;;;;;19.02;11.73;;;-3.90;99.90;;;;;;476871;248;27884;-67
2022/12/15 08:39:12;;;;;;;20.30;12.95;;;-3.90;99.90;;;;;;476900;249;28002;-67
2022/12/15 08:41:15;;;;;;;16.87;12.00;;;;;;;;;;476904;248;28096;-67
2022/12/15 08:43:17;;;;;;;19.65;12.27;;;;;;;;;;476735;248;26922;-68
2022/12/15 08:45:19;;;;;;;20.27;13.65;;;-3.70;99.90;;;;;;476934;249;26592;-68
2022/12/15 08:47:21;;;;;;;20.83;12.40;;;;;;;;;;476896;248;27639;-67
2022/12/15 08:49:24;;;;;;;19.12;12.63;;;;;;;;;;476903;249;27112;-68
2022/12/15 08:51:26;;;;;;;19.98;13.10;;;;;;;;;;476902;249;26618;-68
2022/12/15 08:53:27;;;;;;;19.05;12.63;;;-3.40;99.90;;;;;;476886;249;26602;-68
2022/12/15 08:55:30;;;;;;;19.27;12.45;;;;;;;;;;476659;248;27177;-67
2022/12/15 08:57:32;;;;;;;24.83;14.38;;;;;;;;;;476904;249;28257;-67
2022/12/15 08:59:33;;;;;;;20.92;13.30;;;-3.00;99.90;;;;;;476910;248;26717;-68
2022/12/15 09:01:38;;;;;;;22.83;15.15;;;;;;;;;;476897;248;27181;-67
2022/12/15 09:03:37;;;;;;;20.33;13.07;;;-2.70;99.90;;;;;;476756;249;26686;-67
2022/12/15 09:05:39;;;;;;;23.60;15.07;;;;;;;;;;476903;248;27233;-69
2022/12/15 09:07:41;;;;;;;22.17;14.80;;;-2.60;99.90;;;;;;476871;249;26642;-68
2022/12/15 09:09:42;;;;;;;23.17;14.60;;;-2.50;99.90;;;;;;476890;248;27285;-68
2022/12/15 09:11:43;;;;;;;22.27;14.68;;;-2.50;99.90;;;;;;476978;248;27274;-68
2022/12/15 09:13:44;;;;;;;23.77;13.80;;;-2.40;99.90;;;;;;476915;249;27108;-68
2022/12/15 09:15:46;;;;;;;21.67;13.62;;;-2.40;99.90;;;;;;477018;248;27379;-68
2022/12/15 09:17:47;;;;;;;21.02;14.45;;;-2.30;99.90;;;;;;476904;248;27860;-67
2022/12/15 09:19:48;;;;;;;25.15;14.25;;;-2.20;99.90;;;;;;476913;248;27939;-68
2022/12/15 09:21:49;;;;;;;21.40;12.93;;;-2.20;99.90;;;;;;476920;248;27309;-68
2022/12/15 09:23:51;;;;;;;24.58;13.75;;;-2.10;99.90;;;;;;476912;248;27431;-69
2022/12/15 09:25:52;;;;;;;23.77;13.40;;;-2.10;99.90;;;;;;476916;248;27066;-67
2022/12/15 09:27:53;;;;;;;24.75;14.25;;;-2.10;99.90;;;;;;476892;248;27315;-68
2022/12/15 09:29:54;;;;;;;23.15;14.55;;;-2.10;99.90;;;;;;476890;248;27840;-68
2022/12/15 09:31:56;;;;;;;21.27;13.25;;;-2.10;99.90;;;;;;476915;248;27982;-67
2022/12/15 09:33:57;;;;;;;19.92;13.32;;;-2.10;99.90;;;;;;476896;248;27511;-69
2022/12/15 09:35:58;;;;;;;20.25;13.20;;;-2.00;99.90;;;;;;476909;249;27503;-67
2022/12/15 09:37:59;;;;;;;19.95;12.57;;;-1.90;99.90;;;;;;476884;248;27551;-68
2022/12/15 09:40:01;;;;;;;23.17;13.57;;;-1.90;99.90;;;;;;476915;249;27548;-68
2022/12/15 09:42:02;;;;;;;23.75;13.75;;;-1.90;99.90;;;;;;476907;249;27950;-67
2022/12/15 09:44:03;;;;;;;20.37;13.50;;;-2.00;99.90;;;;;;476901;248;29012;-69
2022/12/15 09:46:05;;;;;;;23.70;15.07;;;-2.00;99.90;;;;;;476851;249;27499;-68
2022/12/15 09:48:06;;;;;;;26.80;15.02;;;-1.90;99.90;;;;;;476870;248;27474;-68
2022/12/15 09:50:07;;;;;;;25.92;15.23;;;-1.80;99.90;;;;;;476926;249;27596;-67
2022/12/15 09:52:09;;;;;;;28.00;14.98;;;-1.80;99.90;;;;;;476868;249;27422;-68
2022/12/15 09:54:10;;;;;;;26.20;15.77;;;-1.70;99.90;;;;;;476841;249;28007;-68
2022/12/15 09:56:11;;;;;;;23.60;15.80;;;-1.80;99.90;;;;;;477662;247;29129;-68
2022/12/15 09:58:12;;;;;;;24.87;15.35;;;-1.70;99.90;;;;;;476876;248;27522;-67
2022/12/15 10:00:14;;;;;;;28.10;15.57;;;-1.70;99.90;;;;;;476909;249;27558;-68
2022/12/15 10:02:15;;;;;;;27.00;14.85;;;-1.80;99.90;;;;;;476902;249;27583;-67
2022/12/15 10:04:16;;;;;;;24.83;14.30;;;-1.90;99.90;;;;;;476670;249;27523;-68
2022/12/15 10:06:17;;;;;;;29.55;15.93;;;-1.90;99.90;;;;;;476892;248;27611;-68
2022/12/15 10:08:19;;;;;;;25.95;15.30;;;-1.90;99.90;;;;;;476898;249;27599;-69
2022/12/15 10:10:20;;;;;;;28.23;15.57;;;-1.90;99.90;;;;;;476909;248;27925;-69
2022/12/15 10:12:21;;;;;;;24.23;14.73;;;-1.90;99.90;;;;;;476981;247;29016;-69
2022/12/15 10:14:22;;;;;;;22.55;14.87;;;-1.90;99.90;;;;;;476898;249;27530;-69
2022/12/15 10:16:24;;;;;;;24.83;14.93;;;-2.00;99.90;;;;;;477660;247;27651;-68
2022/12/15 10:18:25;;;;;;;25.33;14.95;;;-2.00;99.90;;;;;;476906;249;27505;-68
2022/12/15 10:20:26;;;;;;;31.15;16.70;;;-2.20;99.90;;;;;;476895;248;27450;-69
2022/12/15 10:22:27;;;;;;;27.23;17.17;;;-2.30;99.90;;;;;;476874;248;27503;-67
2022/12/15 10:24:29;;;;;;;25.65;15.02;;;-2.40;99.90;;;;;;476881;249;27633;-67
2022/12/15 10:26:30;;;;;;;29.05;16.23;;;-2.40;99.90;;;;;;476864;248;28693;-68
2022/12/15 10:28:31;;;;;;;26.55;15.57;;;-2.40;99.90;;;;;;476905;248;28945;-68
2022/12/15 10:30:32;;;;;;;27.23;16.42;;;-2.40;99.90;;;;;;476912;248;27485;-69
2022/12/15 10:32:34;;;;;;;25.00;16.00;;;-2.50;99.90;;;;;;476900;249;27488;-69
2022/12/15 10:34:36;;;;;;;26.30;15.45;;;-2.40;99.90;;;;;;476875;249;27566;-69
2022/12/15 10:36:36;;;;;;;26.30;16.50;;;-2.40;99.90;;;;;;476855;249;27426;-68
2022/12/15 10:38:39;;;;;;;27.30;16.58;;;-2.40;99.90;;;;;;476922;248;27475;-67
2022/12/15 10:40:39;;;;;;;28.48;16.23;;;-2.40;99.90;;;;;;476858;248;27452;-68
2022/12/15 10:42:40;;;;;;;27.58;15.93;;;-2.40;99.90;;;;;;476896;248;28037;-68
2022/12/15 10:44:41;;;;;;;26.27;16.25;;;-2.20;99.90;;;;;;477042;248;28923;-68
2022/12/15 10:46:43;;;;;;;26.30;16.90;;;-2.20;99.90;;;;;;476912;248;27436;-69
2022/12/15 10:48:44;;;;;;;30.85;17.20;;;-2.10;99.90;;;;;;476888;248;27384;-68
2022/12/15 10:50:46;;;;;;;31.40;17.58;;;-2.10;99.90;;;;;;476878;248;27389;-68
2022/12/15 10:52:47;;;;;;;27.05;16.77;;;-2.10;99.90;;;;;;476872;249;27514;-68
2022/12/15 10:54:48;;;;;;;30.15;18.27;;;-2.00;99.90;;;;;;476891;248;27366;-67
2022/12/15 10:56:49;;;;;;;23.95;15.98;;;-2.00;99.90;;;;;;476891;249;28009;-69
2022/12/15 10:58:50;;;;;;;24.90;16.30;;;-2.00;99.90;;;;;;476892;249;27419;-68
2022/12/15 11:00:51;;;;;;;28.10;16.37;;;-1.90;99.90;;;;;;476878;248;27401;-68
2022/12/15 11:02:53;;;;;;;30.77;16.10;;;-2.00;99.90;;;;;;476865;248;27390;-68
2022/12/15 11:04:54;;;;;;;25.40;15.05;;;-2.00;99.90;;;;;;476908;249;27477;-68
2022/12/15 11:06:55;;;;;;;30.27;16.60;;;-2.00;99.90;;;;;;476884;249;27422;-68
2022/12/15 11:08:57;;;;;;;29.65;17.58;;;-1.90;99.90;;;;;;476862;248;27507;-68
2022/12/15 11:13:18;;;;;;;29.45;17.52;;;-1.90;99.90;;;;;;476868;249;27574;-68
2022/12/15 11:15:19;;;;;;;25.65;16.52;;;-1.90;99.90;;;;;;476429;248;27897;-67
2022/12/15 11:17:20;;;;;;;30.42;17.55;;;-1.80;99.90;;;;;;476789;249;27702;-68
2022/12/15 11:19:21;;;;;;;27.20;17.50;;;-1.90;99.90;;;;;;476903;248;27456;-70
2022/12/15 11:21:23;;;;;;;27.55;15.55;;;-1.90;99.90;;;;;;476879;248;27277;-68
2022/12/15 11:23:24;;;;;;;26.45;16.65;;;-1.80;99.90;;;;;;477894;247;28002;-69
2022/12/15 11:25:25;;;;;;;30.25;18.58;;;-1.70;99.90;;;;;;476884;248;27495;-68
2022/12/15 11:27:26;;;;;;;29.00;18.60;;;-1.70;99.90;;;;;;476891;248;27468;-68
2022/12/15 11:29:28;;;;;;;34.35;18.27;;;-1.80;99.90;;;;;;476932;248;27339;-69
2022/12/15 11:31:29;;;;;;;29.33;18.40;;;-1.70;99.90;;;;;;476925;249;27212;-69
2022/12/15 11:33:30;;;;;;;32.65;18.10;;;-1.80;99.90;;;;;;476882;249;27539;-68
2022/12/15 11:35:31;;;;;;;35.28;18.42;;;-1.90;99.90;;;;;;476896;249;27586;-69
2022/12/15 11:37:33;;;;;;;31.65;18.48;;;-1.90;99.90;;;;;;476916;249;27519;-68
2022/12/15 11:39:34;;;;;;;35.05;19.30;;;-1.90;99.90;;;;;;476918;249;28002;-68
2022/12/15 11:41:35;;;;;;;32.45;18.65;;;-1.90;99.90;;;;;;476906;249;27947;-68
2022/12/15 11:43:37;;;;;;;30.52;18.67;;;-1.80;99.90;;;;;;476911;248;27619;-68
2022/12/15 11:45:38;;;;;;;32.53;19.23;;;-1.70;99.90;;;;;;476931;249;27650;-69
2022/12/15 11:47:41;;;;;;;30.62;19.10;;;-1.70;99.90;;;;;;476917;248;27495;-68
2022/12/15 11:49:40;;;;;;;29.27;18.33;;;-1.70;99.90;;;;;;476808;248;27559;-69
2022/12/15 11:51:42;;;;;;;33.60;18.73;;;-1.50;99.90;;;;;;476892;249;27539;-68
2022/12/15 11:53:43;;;;;;;31.75;17.70;;;-1.50;99.90;;;;;;479172;247;27474;-68
2022/12/15 11:55:44;;;;;;;30.12;18.35;;;-1.50;99.90;;;;;;479147;247;27430;-69
2022/12/15 11:57:46;;;;;;;28.77;17.05;;;-1.50;99.90;;;;;;476912;249;27497;-69
2022/12/15 11:59:47;;;;;;;33.75;19.00;;;-1.50;99.90;;;;;;476917;248;27353;-69
2022/12/15 12:01:48;;;;;;;33.47;18.73;;;-1.70;99.90;;;;;;476908;249;27478;-68
2022/12/15 12:03:49;;;;;;;34.42;18.83;;;-1.60;99.90;;;;;;476922;249;27489;-68
2022/12/15 12:05:51;;;;;;;34.40;17.55;;;-1.60;99.90;;;;;;476919;248;27929;-69
2022/12/15 12:07:52;;;;;;;30.70;18.23;;;-1.50;99.90;;;;;;476899;249;27923;-68
2022/12/15 12:09:53;;;;;;;30.37;17.12;;;-1.50;99.90;;;;;;477064;247;27531;-68
2022/12/15 12:11:55;;;;;;;28.95;17.23;;;-1.40;99.90;;;;;;476954;248;28094;-71
2022/12/15 12:13:56;;;;;;;30.17;17.67;;;-1.40;99.90;;;;;;476929;248;27418;-69
2022/12/15 12:15:57;;;;;;;34.33;17.87;;;-1.50;99.90;;;;;;476922;249;27531;-68
2022/12/15 12:17:58;;;;;;;29.67;18.23;;;-1.40;99.90;;;;;;476916;248;27412;-68
2022/12/15 12:20:00;;;;;;;30.30;17.37;;;-1.40;99.90;;;;;;476890;248;27617;-68
2022/12/15 12:22:01;;;;;;;30.05;17.17;;;-1.40;99.90;;;;;;476943;249;27510;-69
2022/12/15 12:24:02;;;;;;;26.42;17.50;;;-1.50;99.90;;;;;;479649;247;27402;-68
2022/12/15 12:26:03;;;;;;;26.35;15.88;;;-1.40;99.90;;;;;;476580;248;27512;-69
2022/12/15 12:28:05;;;;;;;29.10;17.33;;;-1.50;99.90;;;;;;476874;249;27540;-69
2022/12/15 12:30:06;;;;;;;30.27;16.85;;;-1.50;99.90;;;;;;476929;248;27496;-68
2022/12/15 12:32:07;;;;;;;28.55;17.37;;;-1.50;99.90;;;;;;476918;248;27519;-69
2022/12/15 12:34:09;;;;;;;30.80;16.23;;;-1.50;99.90;;;;;;476883;248;27978;-68
2022/12/15 12:36:10;;;;;;;28.30;17.25;;;-1.50;99.90;;;;;;476892;248;27989;-68
2022/12/15 12:38:11;;;;;;;30.00;17.95;;;-1.50;99.90;;;;;;476861;249;27530;-68
2022/12/15 12:40:12;;;;;;;29.52;17.67;;;-1.50;99.90;;;;;;476596;249;27943;-68
2022/12/15 12:42:14;;;;;;;34.22;17.30;;;-1.40;99.90;;;;;;476729;249;27973;-67
2022/12/15 12:44:15;;;;;;;32.35;17.02;;;-1.50;99.90;;;;;;479286;247;27650;-68
2022/12/15 12:46:16;;;;;;;28.50;16.42;;;-1.50;99.90;;;;;;477600;246;27530;-68
2022/12/15 12:48:17;;;;;;;28.95;17.40;;;-1.60;99.90;;;;;;476841;248;27538;-70
2022/12/15 12:50:19;;;;;;;33.88;17.52;;;-1.60;99.90;;;;;;478263;247;27515;-68